sensor_id;sensor_type;location;lat;lon;timestamp;pressure;altitude;pressure_sealevel;temperature;humidity
65872;BME280;52653;50.080;21.992;2024-02-23T00:00:58;97473.56;;;8.89;78.18
65872;BME280;52653;50.080;21.992;2024-02-23T00:03:52;97472.56;;;8.88;78.21
65872;BME280;52653;50.080;21.992;2024-02-23T00:06:28;97472.96;;;8.85;78.13
65872;BME280;52653;50.080;21.992;2024-02-23T00:09:02;97468.33;;;8.83;78.11
65872;BME280;52653;50.080;21.992;2024-02-23T00:11:37;97465.62;;;8.80;78.20
65872;BME280;52653;50.080;21.992;2024-02-23T00:14:17;97468.29;;;8.78;78.35
65872;BME280;52653;50.080;21.992;2024-02-23T00:16:53;97467.45;;;8.77;78.08
65872;BME280;52653;50.080;21.992;2024-02-23T00:19:27;97467.11;;;8.77;78.20
65872;BME280;52653;50.080;21.992;2024-02-23T00:22:01;97471.19;;;8.74;78.25
65872;BME280;52653;50.080;21.992;2024-02-23T00:24:38;97466.17;;;8.72;78.27
65872;BME280;52653;50.080;21.992;2024-02-23T00:27:14;97464.41;;;8.73;78.13
65872;BME280;52653;50.080;21.992;2024-02-23T00:29:48;97462.14;;;8.72;78.35
65872;BME280;52653;50.080;21.992;2024-02-23T00:32:23;97457.59;;;8.73;78.31
65872;BME280;52653;50.080;21.992;2024-02-23T00:34:59;97462.09;;;8.74;78.21
65872;BME280;52653;50.080;21.992;2024-02-23T00:37:34;97458.40;;;8.75;78.04
65872;BME280;52653;50.080;21.992;2024-02-23T00:40:10;97457.34;;;8.76;77.99
65872;BME280;52653;50.080;21.992;2024-02-23T00:42:46;97455.04;;;8.77;78.08
65872;BME280;52653;50.080;21.992;2024-02-23T00:45:21;97451.51;;;8.78;77.90
65872;BME280;52653;50.080;21.992;2024-02-23T00:47:55;97452.33;;;8.80;77.77
65872;BME280;52653;50.080;21.992;2024-02-23T00:50:31;97449.27;;;8.82;77.69
65872;BME280;52653;50.080;21.992;2024-02-23T00:53:05;97446.06;;;8.84;77.36
65872;BME280;52653;50.080;21.992;2024-02-23T00:55:40;97444.95;;;8.87;77.21
65872;BME280;52653;50.080;21.992;2024-02-23T00:58:14;97451.70;;;8.89;77.17
65872;BME280;52653;50.080;21.992;2024-02-23T01:00:49;97457.96;;;8.91;77.04
65872;BME280;52653;50.080;21.992;2024-02-23T01:03:23;97464.90;;;8.93;76.90
65872;BME280;52653;50.080;21.992;2024-02-23T01:05:58;97468.83;;;8.96;76.72
65872;BME280;52653;50.080;21.992;2024-02-23T01:08:32;97461.44;;;8.98;76.65
65872;BME280;52653;50.080;21.992;2024-02-23T01:11:08;97456.48;;;8.99;76.50
65872;BME280;52653;50.080;21.992;2024-02-23T01:13:42;97453.29;;;9.00;76.38
65872;BME280;52653;50.080;21.992;2024-02-23T01:16:17;97448.20;;;9.01;76.35
65872;BME280;52653;50.080;21.992;2024-02-23T01:18:51;97442.24;;;9.02;76.41
65872;BME280;52653;50.080;21.992;2024-02-23T01:21:25;97440.48;;;9.02;76.12
65872;BME280;52653;50.080;21.992;2024-02-23T01:24:00;97438.52;;;9.04;75.88
65872;BME280;52653;50.080;21.992;2024-02-23T01:26:35;97441.41;;;9.06;75.92
65872;BME280;52653;50.080;21.992;2024-02-23T01:29:14;97438.41;;;9.07;75.70
65872;BME280;52653;50.080;21.992;2024-02-23T01:31:49;97440.82;;;9.08;75.61
65872;BME280;52653;50.080;21.992;2024-02-23T01:34:24;97441.48;;;9.09;75.65
65872;BME280;52653;50.080;21.992;2024-02-23T01:36:59;97444.42;;;9.11;75.50
65872;BME280;52653;50.080;21.992;2024-02-23T01:39:33;97444.91;;;9.11;75.62
65872;BME280;52653;50.080;21.992;2024-02-23T01:42:08;97442.45;;;9.12;75.42
65872;BME280;52653;50.080;21.992;2024-02-23T01:44:42;97437.16;;;9.13;75.13
65872;BME280;52653;50.080;21.992;2024-02-23T01:47:17;97427.69;;;9.15;75.04
65872;BME280;52653;50.080;21.992;2024-02-23T01:49:53;97426.06;;;9.17;74.90
65872;BME280;52653;50.080;21.992;2024-02-23T01:52:30;97423.92;;;9.18;75.00
65872;BME280;52653;50.080;21.992;2024-02-23T01:55:06;97424.42;;;9.19;75.20
65872;BME280;52653;50.080;21.992;2024-02-23T01:57:42;97424.63;;;9.18;75.58
65872;BME280;52653;50.080;21.992;2024-02-23T02:00:22;97424.51;;;9.16;75.42
65872;BME280;52653;50.080;21.992;2024-02-23T02:02:58;97424.16;;;9.16;75.43
65872;BME280;52653;50.080;21.992;2024-02-23T02:05:34;97429.04;;;9.17;75.38
65872;BME280;52653;50.080;21.992;2024-02-23T02:08:10;97430.45;;;9.16;75.32
65872;BME280;52653;50.080;21.992;2024-02-23T02:10:45;97433.94;;;9.17;75.39
65872;BME280;52653;50.080;21.992;2024-02-23T02:13:22;97429.56;;;9.16;75.14
65872;BME280;52653;50.080;21.992;2024-02-23T02:15:58;97429.21;;;9.17;74.93
65872;BME280;52653;50.080;21.992;2024-02-23T02:18:37;97421.69;;;9.17;74.78
65872;BME280;52653;50.080;21.992;2024-02-23T02:21:14;97419.58;;;9.17;74.70
65872;BME280;52653;50.080;21.992;2024-02-23T02:23:50;97419.91;;;9.18;74.69
65872;BME280;52653;50.080;21.992;2024-02-23T02:26:26;97421.46;;;9.18;74.52
65872;BME280;52653;50.080;21.992;2024-02-23T02:29:01;97414.27;;;9.19;74.42
65872;BME280;52653;50.080;21.992;2024-02-23T02:31:38;97410.91;;;9.20;74.54
65872;BME280;52653;50.080;21.992;2024-02-23T02:34:15;97416.84;;;9.21;74.44
65872;BME280;52653;50.080;21.992;2024-02-23T02:36:50;97416.31;;;9.21;74.54
65872;BME280;52653;50.080;21.992;2024-02-23T02:39:24;97420.36;;;9.20;74.80
65872;BME280;52653;50.080;21.992;2024-02-23T02:41:59;97432.63;;;9.19;75.16
65872;BME280;52653;50.080;21.992;2024-02-23T02:44:33;97430.90;;;9.18;75.18
65872;BME280;52653;50.080;21.992;2024-02-23T02:47:09;97429.39;;;9.17;75.36
65872;BME280;52653;50.080;21.992;2024-02-23T02:49:43;97425.92;;;9.15;75.27
65872;BME280;52653;50.080;21.992;2024-02-23T02:52:19;97423.67;;;9.14;75.16
65872;BME280;52653;50.080;21.992;2024-02-23T02:54:55;97423.70;;;9.13;75.25
65872;BME280;52653;50.080;21.992;2024-02-23T02:57:30;97418.99;;;9.12;74.93
65872;BME280;52653;50.080;21.992;2024-02-23T03:00:09;97419.85;;;9.13;75.27
65872;BME280;52653;50.080;21.992;2024-02-23T03:02:44;97420.41;;;9.12;75.61
65872;BME280;52653;50.080;21.992;2024-02-23T03:05:19;97414.86;;;9.10;75.75
65872;BME280;52653;50.080;21.992;2024-02-23T03:07:54;97420.52;;;9.09;76.02
65872;BME280;52653;50.080;21.992;2024-02-23T03:10:32;97416.55;;;9.07;76.29
65872;BME280;52653;50.080;21.992;2024-02-23T03:13:06;97419.80;;;9.04;76.75
65872;BME280;52653;50.080;21.992;2024-02-23T03:15:42;97419.16;;;9.02;77.22
65872;BME280;52653;50.080;21.992;2024-02-23T03:18:16;97420.64;;;8.99;77.33
65872;BME280;52653;50.080;21.992;2024-02-23T03:20:51;97423.43;;;8.94;77.68
65872;BME280;52653;50.080;21.992;2024-02-23T03:23:27;97418.47;;;8.90;77.62
65872;BME280;52653;50.080;21.992;2024-02-23T03:26:02;97416.27;;;8.87;77.75
65872;BME280;52653;50.080;21.992;2024-02-23T03:28:37;97417.91;;;8.85;77.69
65872;BME280;52653;50.080;21.992;2024-02-23T03:31:12;97422.69;;;8.83;77.24
65872;BME280;52653;50.080;21.992;2024-02-23T03:33:46;97420.59;;;8.83;76.97
65872;BME280;52653;50.080;21.992;2024-02-23T03:36:20;97426.00;;;8.83;76.92
65872;BME280;52653;50.080;21.992;2024-02-23T03:38:55;97427.55;;;8.84;76.78
65872;BME280;52653;50.080;21.992;2024-02-23T03:41:29;97435.58;;;8.84;76.81
65872;BME280;52653;50.080;21.992;2024-02-23T03:44:04;97436.09;;;8.85;76.73
65872;BME280;52653;50.080;21.992;2024-02-23T03:46:39;97433.28;;;8.85;76.71
65872;BME280;52653;50.080;21.992;2024-02-23T03:49:13;97438.53;;;8.85;76.38
65872;BME280;52653;50.080;21.992;2024-02-23T03:51:48;97435.73;;;8.85;76.32
65872;BME280;52653;50.080;21.992;2024-02-23T03:54:22;97435.02;;;8.85;76.29
65872;BME280;52653;50.080;21.992;2024-02-23T03:56:57;97440.94;;;8.87;75.95
65872;BME280;52653;50.080;21.992;2024-02-23T03:59:31;97438.82;;;8.87;75.88
65872;BME280;52653;50.080;21.992;2024-02-23T04:02:06;97444.95;;;8.87;75.96
65872;BME280;52653;50.080;21.992;2024-02-23T04:04:42;97449.52;;;8.86;75.54
65872;BME280;52653;50.080;21.992;2024-02-23T04:07:16;97448.08;;;8.88;75.64
65872;BME280;52653;50.080;21.992;2024-02-23T04:09:51;97448.61;;;8.88;75.79
65872;BME280;52653;50.080;21.992;2024-02-23T04:12:27;97451.08;;;8.87;75.85
65872;BME280;52653;50.080;21.992;2024-02-23T04:15:04;97445.84;;;8.86;76.04
65872;BME280;52653;50.080;21.992;2024-02-23T04:17:38;97445.73;;;8.84;76.03
65872;BME280;52653;50.080;21.992;2024-02-23T04:20:13;97447.35;;;8.83;76.03
65872;BME280;52653;50.080;21.992;2024-02-23T04:22:48;97442.67;;;8.81;76.29
65872;BME280;52653;50.080;21.992;2024-02-23T04:25:23;97446.41;;;8.79;76.44
65872;BME280;52653;50.080;21.992;2024-02-23T04:27:58;97439.14;;;8.77;76.50
65872;BME280;52653;50.080;21.992;2024-02-23T04:30:32;97437.27;;;8.74;76.84
65872;BME280;52653;50.080;21.992;2024-02-23T04:33:06;97433.16;;;8.71;77.09
65872;BME280;52653;50.080;21.992;2024-02-23T04:35:41;97439.21;;;8.68;77.33
65872;BME280;52653;50.080;21.992;2024-02-23T04:38:16;97437.73;;;8.65;77.51
65872;BME280;52653;50.080;21.992;2024-02-23T04:40:51;97432.77;;;8.61;77.80
65872;BME280;52653;50.080;21.992;2024-02-23T04:43:26;97433.91;;;8.58;77.80
65872;BME280;52653;50.080;21.992;2024-02-23T04:46:00;97429.48;;;8.54;78.15
65872;BME280;52653;50.080;21.992;2024-02-23T04:48:35;97430.08;;;8.52;78.30
65872;BME280;52653;50.080;21.992;2024-02-23T04:51:10;97434.14;;;8.50;78.36
65872;BME280;52653;50.080;21.992;2024-02-23T04:53:44;97435.59;;;8.48;78.52
65872;BME280;52653;50.080;21.992;2024-02-23T04:56:19;97430.58;;;8.46;78.64
65872;BME280;52653;50.080;21.992;2024-02-23T04:58:55;97435.66;;;8.45;78.71
65872;BME280;52653;50.080;21.992;2024-02-23T05:01:34;97438.66;;;8.45;78.82
65872;BME280;52653;50.080;21.992;2024-02-23T05:04:08;97435.33;;;8.44;78.72
65872;BME280;52653;50.080;21.992;2024-02-23T05:06:43;97443.74;;;8.44;78.97
65872;BME280;52653;50.080;21.992;2024-02-23T05:09:17;97447.92;;;8.44;78.84
65872;BME280;52653;50.080;21.992;2024-02-23T05:11:53;97447.39;;;8.45;78.88
65872;BME280;52653;50.080;21.992;2024-02-23T05:14:28;97452.77;;;8.46;78.89
65872;BME280;52653;50.080;21.992;2024-02-23T05:17:02;97457.46;;;8.47;78.87
65872;BME280;52653;50.080;21.992;2024-02-23T05:19:37;97459.88;;;8.48;78.88
65872;BME280;52653;50.080;21.992;2024-02-23T05:22:12;97473.34;;;8.47;79.27
65872;BME280;52653;50.080;21.992;2024-02-23T05:24:46;97466.88;;;8.47;79.63
65872;BME280;52653;50.080;21.992;2024-02-23T05:27:21;97470.73;;;8.47;79.82
65872;BME280;52653;50.080;21.992;2024-02-23T05:29:55;97469.89;;;8.46;79.86
65872;BME280;52653;50.080;21.992;2024-02-23T05:32:30;97476.54;;;8.45;80.21
65872;BME280;52653;50.080;21.992;2024-02-23T05:35:06;97472.55;;;8.44;80.18
65872;BME280;52653;50.080;21.992;2024-02-23T05:37:41;97476.94;;;8.44;80.13
65872;BME280;52653;50.080;21.992;2024-02-23T05:40:16;97477.47;;;8.43;80.21
65872;BME280;52653;50.080;21.992;2024-02-23T05:42:50;97480.08;;;8.44;80.10
65872;BME280;52653;50.080;21.992;2024-02-23T05:45:25;97480.06;;;8.44;80.13
65872;BME280;52653;50.080;21.992;2024-02-23T05:47:59;97480.55;;;8.46;80.04
65872;BME280;52653;50.080;21.992;2024-02-23T05:50:34;97481.23;;;8.46;79.94
65872;BME280;52653;50.080;21.992;2024-02-23T05:53:09;97487.16;;;8.46;80.03
65872;BME280;52653;50.080;21.992;2024-02-23T05:55:44;97491.51;;;8.47;80.18
65872;BME280;52653;50.080;21.992;2024-02-23T05:58:18;97495.19;;;8.47;80.25
65872;BME280;52653;50.080;21.992;2024-02-23T06:00:53;97494.16;;;8.46;80.43
65872;BME280;52653;50.080;21.992;2024-02-23T06:03:28;97495.20;;;8.47;80.47
65872;BME280;52653;50.080;21.992;2024-02-23T06:06:06;97500.30;;;8.45;80.31
65872;BME280;52653;50.080;21.992;2024-02-23T06:08:41;97502.95;;;8.45;80.30
65872;BME280;52653;50.080;21.992;2024-02-23T06:11:16;97510.27;;;8.45;80.19
65872;BME280;52653;50.080;21.992;2024-02-23T06:13:51;97514.11;;;8.45;80.02
65872;BME280;52653;50.080;21.992;2024-02-23T06:16:25;97519.66;;;8.46;79.94
65872;BME280;52653;50.080;21.992;2024-02-23T06:19:00;97524.54;;;8.47;80.15
65872;BME280;52653;50.080;21.992;2024-02-23T06:21:37;97532.04;;;8.47;80.26
65872;BME280;52653;50.080;21.992;2024-02-23T06:24:11;97537.62;;;8.48;80.40
65872;BME280;52653;50.080;21.992;2024-02-23T06:26:45;97532.69;;;8.49;80.33
65872;BME280;52653;50.080;21.992;2024-02-23T06:29:21;97542.10;;;8.50;80.24
65872;BME280;52653;50.080;21.992;2024-02-23T06:31:56;97542.95;;;8.51;80.25
65872;BME280;52653;50.080;21.992;2024-02-23T06:34:30;97546.92;;;8.53;80.16
65872;BME280;52653;50.080;21.992;2024-02-23T06:37:06;97548.64;;;8.55;80.37
65872;BME280;52653;50.080;21.992;2024-02-23T06:39:40;97553.30;;;8.57;80.56
65872;BME280;52653;50.080;21.992;2024-02-23T06:42:15;97557.79;;;8.59;80.87
65872;BME280;52653;50.080;21.992;2024-02-23T06:44:52;97561.06;;;8.60;81.31
65872;BME280;52653;50.080;21.992;2024-02-23T06:47:26;97558.11;;;8.60;81.70
65872;BME280;52653;50.080;21.992;2024-02-23T06:50:01;97561.85;;;8.57;82.08
65872;BME280;52653;50.080;21.992;2024-02-23T06:52:36;97566.06;;;8.56;82.03
65872;BME280;52653;50.080;21.992;2024-02-23T06:55:11;97566.60;;;8.55;82.45
65872;BME280;52653;50.080;21.992;2024-02-23T06:57:46;97574.33;;;8.54;82.49
65872;BME280;52653;50.080;21.992;2024-02-23T07:00:21;97577.00;;;8.53;82.60
65872;BME280;52653;50.080;21.992;2024-02-23T07:02:56;97577.68;;;8.53;82.91
65872;BME280;52653;50.080;21.992;2024-02-23T07:05:34;97580.52;;;8.51;83.43
65872;BME280;52653;50.080;21.992;2024-02-23T07:08:09;97584.73;;;8.50;83.75
65872;BME280;52653;50.080;21.992;2024-02-23T07:10:44;97587.25;;;8.47;84.01
65872;BME280;52653;50.080;21.992;2024-02-23T07:13:19;97589.20;;;8.46;84.33
65872;BME280;52653;50.080;21.992;2024-02-23T07:15:54;97591.90;;;8.43;84.70
65872;BME280;52653;50.080;21.992;2024-02-23T07:18:30;97599.48;;;8.41;84.86
65872;BME280;52653;50.080;21.992;2024-02-23T07:21:07;97605.45;;;8.40;85.07
65872;BME280;52653;50.080;21.992;2024-02-23T07:23:43;97609.50;;;8.38;85.22
65872;BME280;52653;50.080;21.992;2024-02-23T07:26:18;97610.89;;;8.38;85.39
65872;BME280;52653;50.080;21.992;2024-02-23T07:29:00;97617.52;;;8.39;85.41
65872;BME280;52653;50.080;21.992;2024-02-23T07:31:40;97619.96;;;8.40;85.71
65872;BME280;52653;50.080;21.992;2024-02-23T07:34:19;97623.99;;;8.39;86.17
65872;BME280;52653;50.080;21.992;2024-02-23T07:36:55;97627.31;;;8.39;86.34
65872;BME280;52653;50.080;21.992;2024-02-23T07:39:30;97630.29;;;8.38;86.44
65872;BME280;52653;50.080;21.992;2024-02-23T07:42:05;97626.79;;;8.38;86.87
65872;BME280;52653;50.080;21.992;2024-02-23T07:44:43;97628.55;;;8.37;87.09
65872;BME280;52653;50.080;21.992;2024-02-23T07:47:18;97629.25;;;8.37;87.39
65872;BME280;52653;50.080;21.992;2024-02-23T07:49:52;97634.87;;;8.36;87.70
65872;BME280;52653;50.080;21.992;2024-02-23T07:52:27;97639.63;;;8.35;87.95
65872;BME280;52653;50.080;21.992;2024-02-23T07:55:03;97644.17;;;8.35;88.03
65872;BME280;52653;50.080;21.992;2024-02-23T07:57:39;97645.20;;;8.35;88.24
65872;BME280;52653;50.080;21.992;2024-02-23T08:00:14;97646.94;;;8.36;88.55
65872;BME280;52653;50.080;21.992;2024-02-23T08:02:48;97644.11;;;8.37;88.90
65872;BME280;52653;50.080;21.992;2024-02-23T08:05:25;97644.60;;;8.39;89.22
65872;BME280;52653;50.080;21.992;2024-02-23T08:08:00;97646.63;;;8.42;89.60
65872;BME280;52653;50.080;21.992;2024-02-23T08:10:35;97648.46;;;8.45;89.63
65872;BME280;52653;50.080;21.992;2024-02-23T08:13:10;97648.52;;;8.49;89.78
65872;BME280;52653;50.080;21.992;2024-02-23T08:15:45;97650.55;;;8.53;90.20
65872;BME280;52653;50.080;21.992;2024-02-23T08:18:19;97653.02;;;8.59;90.07
65872;BME280;52653;50.080;21.992;2024-02-23T08:20:56;97650.73;;;8.66;90.13
65872;BME280;52653;50.080;21.992;2024-02-23T08:23:31;97650.55;;;8.73;90.23
65872;BME280;52653;50.080;21.992;2024-02-23T08:26:05;97652.66;;;8.80;90.13
65872;BME280;52653;50.080;21.992;2024-02-23T08:28:40;97653.88;;;8.87;89.84
65872;BME280;52653;50.080;21.992;2024-02-23T08:31:14;97654.90;;;8.95;89.64
65872;BME280;52653;50.080;21.992;2024-02-23T08:33:50;97656.76;;;9.04;89.50
65872;BME280;52653;50.080;21.992;2024-02-23T08:36:24;97654.75;;;9.13;89.35
65872;BME280;52653;50.080;21.992;2024-02-23T08:38:59;97659.39;;;9.23;89.23
65872;BME280;52653;50.080;21.992;2024-02-23T08:41:36;97658.84;;;9.30;88.63
65872;BME280;52653;50.080;21.992;2024-02-23T08:44:11;97663.38;;;9.37;88.46
65872;BME280;52653;50.080;21.992;2024-02-23T08:46:47;97664.27;;;9.42;88.28
65872;BME280;52653;50.080;21.992;2024-02-23T08:49:22;97661.56;;;9.46;88.01
65872;BME280;52653;50.080;21.992;2024-02-23T08:51:57;97661.27;;;9.50;87.79
65872;BME280;52653;50.080;21.992;2024-02-23T08:54:32;97663.52;;;9.57;87.80
65872;BME280;52653;50.080;21.992;2024-02-23T08:57:07;97662.77;;;9.64;87.62
65872;BME280;52653;50.080;21.992;2024-02-23T08:59:41;97660.82;;;9.71;87.22
65872;BME280;52653;50.080;21.992;2024-02-23T09:02:16;97656.88;;;9.80;87.30
65872;BME280;52653;50.080;21.992;2024-02-23T09:04:51;97659.77;;;9.89;87.24
65872;BME280;52653;50.080;21.992;2024-02-23T09:07:26;97660.79;;;9.96;86.65
65872;BME280;52653;50.080;21.992;2024-02-23T09:10:01;97665.16;;;10.02;86.24
65872;BME280;52653;50.080;21.992;2024-02-23T09:12:37;97664.45;;;10.14;86.47
65872;BME280;52653;50.080;21.992;2024-02-23T09:15:12;97663.00;;;10.28;85.44
65872;BME280;52653;50.080;21.992;2024-02-23T09:17:46;97666.27;;;10.41;84.75
65872;BME280;52653;50.080;21.992;2024-02-23T09:20:21;97668.75;;;10.50;84.56
65872;BME280;52653;50.080;21.992;2024-02-23T09:22:55;97670.31;;;10.62;84.19
65872;BME280;52653;50.080;21.992;2024-02-23T09:25:30;97672.42;;;10.67;83.45
65872;BME280;52653;50.080;21.992;2024-02-23T09:28:06;97671.73;;;10.72;83.49
65872;BME280;52653;50.080;21.992;2024-02-23T09:30:40;97674.52;;;10.77;83.26
65872;BME280;52653;50.080;21.992;2024-02-23T09:33:15;97677.96;;;10.80;83.16
65872;BME280;52653;50.080;21.992;2024-02-23T09:35:49;97681.00;;;10.78;82.69
65872;BME280;52653;50.080;21.992;2024-02-23T09:38:24;97679.82;;;10.71;82.27
65872;BME280;52653;50.080;21.992;2024-02-23T09:40:59;97680.15;;;10.61;82.11
65872;BME280;52653;50.080;21.992;2024-02-23T09:43:34;97682.61;;;10.50;82.30
65872;BME280;52653;50.080;21.992;2024-02-23T09:46:10;97684.38;;;10.39;82.24
65872;BME280;52653;50.080;21.992;2024-02-23T09:48:45;97689.42;;;10.28;82.64
65872;BME280;52653;50.080;21.992;2024-02-23T09:51:21;97690.20;;;10.20;82.86
65872;BME280;52653;50.080;21.992;2024-02-23T09:53:57;97690.96;;;10.12;82.88
65872;BME280;52653;50.080;21.992;2024-02-23T09:56:32;97695.48;;;10.08;83.04
65872;BME280;52653;50.080;21.992;2024-02-23T09:59:09;97694.68;;;10.04;83.03
65872;BME280;52653;50.080;21.992;2024-02-23T10:01:44;97695.06;;;10.03;83.25
65872;BME280;52653;50.080;21.992;2024-02-23T10:04:21;97698.68;;;10.06;83.79
65872;BME280;52653;50.080;21.992;2024-02-23T10:06:56;97696.62;;;10.05;83.97
65872;BME280;52653;50.080;21.992;2024-02-23T10:09:31;97697.80;;;10.06;84.22
65872;BME280;52653;50.080;21.992;2024-02-23T10:12:06;97696.25;;;10.11;84.08
65872;BME280;52653;50.080;21.992;2024-02-23T10:14:42;97700.96;;;10.23;84.34
65872;BME280;52653;50.080;21.992;2024-02-23T10:17:18;97701.52;;;10.39;84.16
65872;BME280;52653;50.080;21.992;2024-02-23T10:19:53;97699.92;;;10.57;83.48
65872;BME280;52653;50.080;21.992;2024-02-23T10:22:27;97707.93;;;10.75;83.07
65872;BME280;52653;50.080;21.992;2024-02-23T10:25:05;97713.89;;;10.91;82.49
65872;BME280;52653;50.080;21.992;2024-02-23T10:27:39;97718.11;;;11.01;81.48
65872;BME280;52653;50.080;21.992;2024-02-23T10:30:14;97719.34;;;11.11;81.65
65872;BME280;52653;50.080;21.992;2024-02-23T10:32:50;97723.15;;;11.18;81.00
65872;BME280;52653;50.080;21.992;2024-02-23T10:35:28;97727.52;;;11.29;81.26
65872;BME280;52653;50.080;21.992;2024-02-23T10:38:05;97735.70;;;11.36;80.87
65872;BME280;52653;50.080;21.992;2024-02-23T10:40:45;97735.16;;;11.36;79.91
65872;BME280;52653;50.080;21.992;2024-02-23T10:43:22;97739.91;;;11.36;79.55
65872;BME280;52653;50.080;21.992;2024-02-23T10:45:58;97748.80;;;11.38;79.68
65872;BME280;52653;50.080;21.992;2024-02-23T10:48:35;97750.75;;;11.33;79.22
65872;BME280;52653;50.080;21.992;2024-02-23T10:51:12;97753.55;;;11.27;79.19
65872;BME280;52653;50.080;21.992;2024-02-23T10:53:54;97758.30;;;11.27;79.31
65872;BME280;52653;50.080;21.992;2024-02-23T10:56:29;97761.86;;;11.31;78.92
65872;BME280;52653;50.080;21.992;2024-02-23T10:59:04;97762.94;;;11.35;78.55
65872;BME280;52653;50.080;21.992;2024-02-23T11:01:41;97762.45;;;11.39;77.86
65872;BME280;52653;50.080;21.992;2024-02-23T11:04:16;97762.81;;;11.44;77.79
65872;BME280;52653;50.080;21.992;2024-02-23T11:06:55;97767.07;;;11.53;78.14
65872;BME280;52653;50.080;21.992;2024-02-23T11:09:33;97765.55;;;11.61;77.14
65872;BME280;52653;50.080;21.992;2024-02-23T11:12:09;97759.98;;;11.70;77.28
65872;BME280;52653;50.080;21.992;2024-02-23T11:14:45;97766.11;;;11.75;76.49
65872;BME280;52653;50.080;21.992;2024-02-23T11:17:22;97762.88;;;11.67;75.78
65872;BME280;52653;50.080;21.992;2024-02-23T11:19:58;97763.91;;;11.58;76.11
65872;BME280;52653;50.080;21.992;2024-02-23T11:22:34;97767.91;;;11.49;76.40
65872;BME280;52653;50.080;21.992;2024-02-23T11:25:09;97762.76;;;11.40;76.32
65872;BME280;52653;50.080;21.992;2024-02-23T11:27:44;97768.45;;;11.38;76.47
65872;BME280;52653;50.080;21.992;2024-02-23T11:30:18;97768.76;;;11.39;76.76
65872;BME280;52653;50.080;21.992;2024-02-23T11:32:59;97770.78;;;11.42;76.84
65872;BME280;52653;50.080;21.992;2024-02-23T11:35:35;97770.16;;;11.45;76.36
65872;BME280;52653;50.080;21.992;2024-02-23T11:38:10;97770.06;;;11.42;76.23
65872;BME280;52653;50.080;21.992;2024-02-23T11:40:45;97772.27;;;11.34;76.02
65872;BME280;52653;50.080;21.992;2024-02-23T11:43:21;97769.23;;;11.31;76.73
65872;BME280;52653;50.080;21.992;2024-02-23T11:45:58;97767.33;;;11.30;76.49
65872;BME280;52653;50.080;21.992;2024-02-23T11:48:32;97774.41;;;11.28;76.68
65872;BME280;52653;50.080;21.992;2024-02-23T11:51:08;97773.54;;;11.28;76.90
65872;BME280;52653;50.080;21.992;2024-02-23T11:53:43;97776.45;;;11.25;76.65
65872;BME280;52653;50.080;21.992;2024-02-23T11:56:18;97777.09;;;11.22;76.65
65872;BME280;52653;50.080;21.992;2024-02-23T11:58:54;97784.50;;;11.15;76.64
65872;BME280;52653;50.080;21.992;2024-02-23T12:01:30;97789.98;;;11.08;76.80
65872;BME280;52653;50.080;21.992;2024-02-23T12:04:05;97790.29;;;10.99;77.03
65872;BME280;52653;50.080;21.992;2024-02-23T12:06:40;97784.01;;;10.92;77.44
65872;BME280;52653;50.080;21.992;2024-02-23T12:09:16;97778.01;;;10.94;77.60
65872;BME280;52653;50.080;21.992;2024-02-23T12:11:50;97774.17;;;11.03;77.72
65872;BME280;52653;50.080;21.992;2024-02-23T12:14:26;97783.52;;;11.12;77.56
65872;BME280;52653;50.080;21.992;2024-02-23T12:17:03;97781.42;;;11.18;77.54
65872;BME280;52653;50.080;21.992;2024-02-23T12:19:41;97787.23;;;11.23;77.00
65872;BME280;52653;50.080;21.992;2024-02-23T12:22:18;97783.59;;;11.27;77.13
65872;BME280;52653;50.080;21.992;2024-02-23T12:24:53;97786.23;;;11.32;76.96
65872;BME280;52653;50.080;21.992;2024-02-23T12:27:28;97790.56;;;11.34;76.28
65872;BME280;52653;50.080;21.992;2024-02-23T12:30:05;97787.06;;;11.33;76.57
65872;BME280;52653;50.080;21.992;2024-02-23T12:32:44;97788.89;;;11.31;76.33
65872;BME280;52653;50.080;21.992;2024-02-23T12:35:20;97790.04;;;11.28;76.19
65872;BME280;52653;50.080;21.992;2024-02-23T12:37:59;97791.75;;;11.24;76.13
65872;BME280;52653;50.080;21.992;2024-02-23T12:40:36;97790.45;;;11.21;76.12
65872;BME280;52653;50.080;21.992;2024-02-23T12:43:14;97797.29;;;11.15;76.20
65872;BME280;52653;50.080;21.992;2024-02-23T12:45:50;97793.65;;;11.09;76.51
65872;BME280;52653;50.080;21.992;2024-02-23T12:48:28;97795.02;;;11.04;76.70
65872;BME280;52653;50.080;21.992;2024-02-23T12:51:05;97793.83;;;10.98;76.68
65872;BME280;52653;50.080;21.992;2024-02-23T12:53:42;97796.32;;;10.91;76.90
65872;BME280;52653;50.080;21.992;2024-02-23T12:56:17;97796.54;;;10.85;76.78
65872;BME280;52653;50.080;21.992;2024-02-23T12:58:51;97793.83;;;10.82;77.02
65872;BME280;52653;50.080;21.992;2024-02-23T13:01:24;97796.70;;;10.80;77.18
65872;BME280;52653;50.080;21.992;2024-02-23T13:03:57;97801.94;;;10.80;77.21
65872;BME280;52653;50.080;21.992;2024-02-23T13:06:29;97801.70;;;10.83;77.43
65872;BME280;52653;50.080;21.992;2024-02-23T13:09:01;97804.62;;;10.84;77.61
65872;BME280;52653;50.080;21.992;2024-02-23T13:11:34;97809.95;;;10.87;77.96
65872;BME280;52653;50.080;21.992;2024-02-23T13:14:06;97809.01;;;10.95;78.37
65872;BME280;52653;50.080;21.992;2024-02-23T13:16:40;97809.77;;;11.04;78.45
65872;BME280;52653;50.080;21.992;2024-02-23T13:19:12;97812.47;;;11.13;78.31
65872;BME280;52653;50.080;21.992;2024-02-23T13:21:45;97815.84;;;11.23;78.13
65872;BME280;52653;50.080;21.992;2024-02-23T13:24:17;97818.14;;;11.33;78.33
65872;BME280;52653;50.080;21.992;2024-02-23T13:26:49;97816.25;;;11.37;78.15
65872;BME280;52653;50.080;21.992;2024-02-23T13:29:21;97819.67;;;11.34;77.83
65872;BME280;52653;50.080;21.992;2024-02-23T13:31:53;97821.18;;;11.32;77.93
65872;BME280;52653;50.080;21.992;2024-02-23T13:34:25;97826.48;;;11.30;77.87
65872;BME280;52653;50.080;21.992;2024-02-23T13:36:57;97827.27;;;11.27;77.61
65872;BME280;52653;50.080;21.992;2024-02-23T13:39:30;97833.45;;;11.27;77.80